createdAt,value
2023-03-29T00:04:43.064Z,0
2023-03-29T00:20:06.371Z,0
2023-03-29T00:35:28.693Z,0
2023-03-29T00:50:52.018Z,0
2023-03-29T01:06:15.318Z,0
2023-03-29T01:21:38.628Z,0
2023-03-29T01:37:01.945Z,0
2023-03-29T01:52:25.234Z,0
2023-03-29T02:07:48.547Z,0
2023-03-29T02:23:11.856Z,0
2023-03-29T02:38:35.162Z,0
2023-03-29T02:53:58.465Z,0
2023-03-29T03:09:21.767Z,0
2023-03-29T03:24:45.074Z,0
2023-03-29T03:40:08.388Z,0
2023-03-29T03:55:30.715Z,0
2023-03-29T04:10:54.014Z,0
2023-03-29T04:26:17.277Z,1
2023-03-29T04:41:40.538Z,4
2023-03-29T04:57:03.805Z,31
2023-03-29T05:12:27.070Z,98
2023-03-29T05:27:50.336Z,208
2023-03-29T05:43:13.591Z,216
2023-03-29T05:58:36.847Z,308
2023-03-29T06:14:00.122Z,365
2023-03-29T06:29:23.372Z,471
2023-03-29T06:44:46.634Z,453
2023-03-29T07:00:09.894Z,498
2023-03-29T07:15:32.192Z,851
2023-03-29T07:30:55.447Z,974
2023-03-29T07:46:18.709Z,1292
2023-03-29T08:01:41.974Z,1308
2023-03-29T08:17:05.225Z,1294
2023-03-29T08:32:28.478Z,1819
2023-03-29T08:47:51.767Z,1982
2023-03-29T09:03:15.022Z,2592
2023-03-29T09:18:38.279Z,1813
2023-03-29T09:34:01.536Z,1445
2023-03-29T09:49:24.801Z,2194
2023-03-29T09:50:48.201Z,2304
2023-03-29T09:52:11.611Z,2358
2023-03-29T09:53:34.047Z,2371
2023-03-29T09:54:57.440Z,2345
2023-03-29T09:56:20.853Z,2301
2023-03-29T09:57:44.258Z,2319
2023-03-29T09:59:07.681Z,2288
2023-03-29T10:00:31.097Z,2250
2023-03-29T10:01:54.497Z,3072
2023-03-29T10:03:17.908Z,2462
2023-03-29T10:04:41.306Z,2651
2023-03-29T10:06:04.724Z,2817
2023-03-29T10:07:28.124Z,2840
2023-03-29T10:08:51.533Z,2858
2023-03-29T10:10:14.949Z,2903
2023-03-29T10:11:37.377Z,3128
2023-03-29T10:13:00.775Z,3597
2023-03-29T10:14:24.193Z,3945
2023-03-29T10:15:47.604Z,3983
2023-03-29T10:17:11.002Z,3803
2023-03-29T10:18:34.428Z,3288
2023-03-29T10:19:57.818Z,3212
2023-03-29T10:21:21.000Z,3443
2023-03-29T10:22:44.660Z,3842
2023-03-29T10:24:08.066Z,4228
2023-03-29T10:25:31.472Z,4561
2023-03-29T10:26:54.881Z,5082
2023-03-29T10:28:18.289Z,5596
2023-03-29T10:29:40.719Z,6052
2023-03-29T10:31:04.122Z,6304
2023-03-29T10:32:27.538Z,6803
2023-03-29T10:33:50.935Z,7330
2023-03-29T10:35:14.351Z,7642
2023-03-29T10:36:37.770Z,7750
2023-03-29T10:38:01.164Z,6984
2023-03-29T10:39:24.585Z,8167
2023-03-29T10:40:47.987Z,7327
2023-03-29T10:42:11.399Z,8263
2023-03-29T10:43:34.809Z,3072
2023-03-29T10:44:58.223Z,5953
2023-03-29T10:46:21.623Z,5568
2023-03-29T10:47:45.028Z,5272
2023-03-29T10:49:07.444Z,4772
2023-03-29T10:50:30.848Z,5258
2023-03-29T10:51:54.271Z,6021
2023-03-29T10:53:17.677Z,6358
2023-03-29T10:54:41.087Z,6317
2023-03-29T10:56:04.493Z,4726
2023-03-29T10:57:27.912Z,4785
2023-03-29T10:58:51.307Z,4246
2023-03-29T11:00:14.727Z,3521
2023-03-29T11:01:38.139Z,3172
2023-03-29T11:03:01.553Z,3212
2023-03-29T11:04:24.963Z,3308
2023-03-29T11:05:48.372Z,3584
2023-03-29T11:07:10.789Z,3873
2023-03-29T11:08:34.202Z,4363
2023-03-29T11:09:57.000Z,3980
2023-03-29T11:11:21.028Z,3958
2023-03-29T11:12:44.436Z,3875
2023-03-29T11:14:07.829Z,3518
2023-03-29T11:15:31.245Z,3421
2023-03-29T11:16:54.661Z,3522
2023-03-29T11:18:18.070Z,3262
2023-03-29T11:19:41.474Z,3166
2023-03-29T11:21:04.901Z,3225
2023-03-29T11:22:28.309Z,3251
2023-03-29T11:23:51.712Z,3167
2023-03-29T11:25:14.140Z,3236
2023-03-29T11:28:00.953Z,4104
2023-03-29T11:29:24.367Z,4105
2023-03-29T11:30:47.776Z,3530
2023-03-29T11:32:11.186Z,3498
2023-03-29T11:33:34.587Z,3490
2023-03-29T11:34:57.989Z,3089
2023-03-29T11:36:21.402Z,2895
2023-03-29T11:37:44.825Z,2891
2023-03-29T11:39:08.219Z,2977
2023-03-29T11:40:31.633Z,3125
2023-03-29T11:41:55.054Z,3259
2023-03-29T11:43:17.472Z,3487
2023-03-29T11:44:40.875Z,4158
2023-03-29T11:46:04.300Z,5553
2023-03-29T11:47:27.690Z,6471
2023-03-29T11:48:51.101Z,5372
2023-03-29T11:50:14.510Z,5205
2023-03-29T11:51:37.937Z,4898
2023-03-29T11:53:01.337Z,4342
2023-03-29T11:54:24.750Z,3963
2023-03-29T11:55:48.147Z,3940
2023-03-29T11:57:11.564Z,4254
2023-03-29T11:58:34.974Z,5016
2023-03-29T11:59:58.387Z,5252
2023-03-29T12:01:20.801Z,4750
2023-03-29T12:02:44.208Z,3072
2023-03-29T12:04:07.610Z,3658
2023-03-29T12:05:31.040Z,3411
2023-03-29T12:06:54.440Z,3117
2023-03-29T12:08:17.855Z,2997
2023-03-29T12:09:41.268Z,3209
2023-03-29T12:11:04.672Z,3618
2023-03-29T12:12:28.083Z,3866
2023-03-29T12:13:51.478Z,3930
2023-03-29T12:15:14.897Z,3072
2023-03-29T12:16:38.294Z,4875
2023-03-29T12:18:01.722Z,4329
2023-03-29T12:19:24.133Z,4811
2023-03-29T12:20:47.550Z,5812
2023-03-29T12:22:10.957Z,6987
2023-03-29T12:23:34.375Z,5205
2023-03-29T12:24:57.776Z,4567
2023-03-29T12:26:21.199Z,4377
2023-03-29T12:27:44.591Z,3906
2023-03-29T12:29:08.017Z,3273
2023-03-29T12:30:31.424Z,2915
2023-03-29T12:31:54.831Z,3098
2023-03-29T12:33:18.241Z,3235
2023-03-29T12:34:41.640Z,3138
2023-03-29T12:36:05.050Z,3492
2023-03-29T12:37:27.469Z,4077
2023-03-29T12:38:50.878Z,4492
2023-03-29T12:40:14.302Z,5095
2023-03-29T12:41:37.704Z,5986
2023-03-29T12:43:01.121Z,7765
2023-03-29T12:44:23.542Z,11519
2023-03-29T12:45:46.959Z,9140
2023-03-29T12:47:10.363Z,6791
2023-03-29T12:48:33.776Z,5378
2023-03-29T12:49:57.180Z,5035
2023-03-29T12:51:20.592Z,5263
2023-03-29T12:52:43.993Z,5403
2023-03-29T12:54:07.417Z,5399
2023-03-29T12:55:30.820Z,5824
2023-03-29T12:56:54.229Z,5481
2023-03-29T12:58:17.639Z,4979
2023-03-29T12:59:41.050Z,5001
2023-03-29T13:01:04.455Z,4092
2023-03-29T13:02:26.894Z,3297
2023-03-29T13:03:50.299Z,2905
2023-03-29T13:05:13.714Z,2811
2023-03-29T13:06:37.129Z,2807
2023-03-29T13:08:00.529Z,3089
2023-03-29T13:09:23.941Z,3565
2023-03-29T13:10:47.351Z,3799
2023-03-29T13:12:10.746Z,3444
2023-03-29T13:13:34.169Z,2790
2023-03-29T13:14:57.563Z,2532
2023-03-29T13:16:20.982Z,2716
2023-03-29T13:17:44.393Z,3195
2023-03-29T13:19:07.786Z,3782
2023-03-29T13:20:30.229Z,3600
2023-03-29T13:21:53.629Z,3323
2023-03-29T13:23:17.048Z,3355
2023-03-29T13:24:40.461Z,3729
2023-03-29T13:26:03.878Z,3780
2023-03-29T13:27:27.288Z,3693
2023-03-29T13:28:50.694Z,3799
2023-03-29T13:30:14.100Z,3790
2023-03-29T13:31:37.500Z,3612
2023-03-29T13:33:00.919Z,3508
2023-03-29T13:34:24.325Z,3532
2023-03-29T13:35:47.725Z,3504
2023-03-29T13:37:11.133Z,3500
2023-03-29T13:38:33.565Z,3655
2023-03-29T13:39:56.971Z,3991
2023-03-29T13:41:20.374Z,4212
2023-03-29T13:42:43.803Z,3072
2023-03-29T13:44:07.195Z,4931
2023-03-29T13:45:30.602Z,6470
2023-03-29T13:46:54.021Z,6301
2023-03-29T13:48:17.433Z,5645
2023-03-29T13:49:40.829Z,4956
2023-03-29T13:51:04.240Z,4619
2023-03-29T13:52:27.649Z,4560
2023-03-29T13:53:51.062Z,4381
2023-03-29T13:55:14.481Z,4137
2023-03-29T13:56:36.899Z,3724
2023-03-29T13:58:00.319Z,3072
2023-03-29T13:59:23.727Z,2977
2023-03-29T14:00:47.130Z,2735
2023-03-29T14:02:10.537Z,2604
2023-03-29T14:03:33.954Z,2554
2023-03-29T14:04:57.356Z,2502
2023-03-29T14:06:20.752Z,2332
2023-03-29T14:07:44.164Z,2223
2023-03-29T14:09:07.585Z,1967
2023-03-29T14:10:30.995Z,1952
2023-03-29T14:11:54.407Z,1919
2023-03-29T14:13:17.797Z,1985
2023-03-29T14:14:40.241Z,2039
2023-03-29T14:16:03.634Z,2131
2023-03-29T14:17:27.042Z,2385
2023-03-29T14:18:50.451Z,2786
2023-03-29T14:20:13.864Z,3040
2023-03-29T14:21:37.270Z,3208
2023-03-29T14:23:00.689Z,3474
2023-03-29T14:24:24.109Z,3726
2023-03-29T14:25:47.514Z,4089
2023-03-29T14:27:10.917Z,4398
2023-03-29T14:28:34.327Z,4916
2023-03-29T14:29:57.749Z,5579
2023-03-29T14:31:21.143Z,5740
2023-03-29T14:32:43.575Z,5691
2023-03-29T14:34:06.983Z,4910
2023-03-29T14:35:30.385Z,4601
2023-03-29T14:36:53.792Z,4474
2023-03-29T14:38:17.202Z,4480
2023-03-29T14:39:40.627Z,4490
2023-03-29T14:41:04.017Z,3989
2023-03-29T14:42:27.425Z,3968
2023-03-29T14:43:50.847Z,3072
2023-03-29T14:45:14.242Z,5714
2023-03-29T14:46:37.669Z,9812
2023-03-29T14:48:01.070Z,7764
2023-03-29T14:49:24.483Z,7408
2023-03-29T14:50:46.898Z,6416
2023-03-29T14:52:10.321Z,6336
2023-03-29T14:53:33.727Z,5391
2023-03-29T14:54:57.132Z,5691
2023-03-29T14:56:20.531Z,4175
2023-03-29T14:57:43.947Z,4409
2023-03-29T14:59:07.358Z,4323
2023-03-29T15:00:30.760Z,3877
2023-03-29T15:01:54.165Z,3629
2023-03-29T15:03:17.581Z,3278
2023-03-29T15:04:40.989Z,3230
2023-03-29T15:07:27.809Z,2729
2023-03-29T15:08:50.237Z,2430
2023-03-29T15:10:13.659Z,2282
2023-03-29T15:11:37.066Z,2141
2023-03-29T15:13:00.463Z,1860
2023-03-29T15:14:23.861Z,1672
2023-03-29T15:15:47.290Z,1635
2023-03-29T15:17:10.679Z,1629
2023-03-29T15:18:34.095Z,1616
2023-03-29T15:19:57.508Z,1601
2023-03-29T15:21:20.910Z,1642
2023-03-29T15:22:44.317Z,1732
2023-03-29T15:24:07.721Z,1725
2023-03-29T15:25:31.125Z,1687
2023-03-29T15:26:53.558Z,1668
2023-03-29T15:28:16.971Z,1746
2023-03-29T15:29:40.384Z,1873
2023-03-29T15:31:03.789Z,1946
2023-03-29T15:32:27.184Z,2110
2023-03-29T15:33:50.590Z,2502
2023-03-29T15:35:14.015Z,2724
2023-03-29T15:36:37.427Z,3046
2023-03-29T15:38:00.835Z,3171
2023-03-29T15:39:24.232Z,3378
2023-03-29T15:40:47.643Z,3423
2023-03-29T15:42:11.062Z,3584
2023-03-29T15:43:34.464Z,3820
2023-03-29T15:44:56.886Z,3820
2023-03-29T15:47:43.701Z,3884
2023-03-29T15:49:07.119Z,3733
2023-03-29T15:50:30.515Z,3368
2023-03-29T15:51:53.933Z,3005
2023-03-29T15:53:17.338Z,2923
2023-03-29T15:54:40.753Z,2819
2023-03-29T15:56:04.157Z,3072
2023-03-29T15:57:27.556Z,2408
2023-03-29T15:58:50.975Z,2218
2023-03-29T16:00:14.374Z,2049
2023-03-29T16:01:37.785Z,2061
2023-03-29T16:03:00.223Z,1956
2023-03-29T16:04:23.614Z,1632
2023-03-29T16:05:47.037Z,1320
2023-03-29T16:07:10.437Z,1079
2023-03-29T16:08:33.839Z,925
2023-03-29T16:09:57.250Z,817
2023-03-29T16:11:20.670Z,795
2023-03-29T16:12:44.087Z,802
2023-03-29T16:14:07.500Z,752
2023-03-29T16:15:30.892Z,693
2023-03-29T16:16:54.313Z,653
2023-03-29T16:18:17.707Z,620
2023-03-29T16:19:41.125Z,628
2023-03-29T16:21:03.550Z,627
2023-03-29T16:22:26.960Z,637
2023-03-29T16:23:50.362Z,606
2023-03-29T16:25:13.762Z,543
2023-03-29T16:26:37.166Z,477
2023-03-29T16:28:00.581Z,422
2023-03-29T16:29:23.981Z,351
2023-03-29T16:30:47.404Z,274
2023-03-29T16:32:10.814Z,231
2023-03-29T16:33:34.209Z,220
2023-03-29T16:34:57.628Z,253
2023-03-29T16:36:21.021Z,275
2023-03-29T16:37:44.444Z,283
2023-03-29T16:39:06.868Z,281
2023-03-29T16:40:30.267Z,255
2023-03-29T16:41:53.667Z,245
2023-03-29T16:43:17.103Z,270
2023-03-29T16:44:40.504Z,304
2023-03-29T16:46:03.908Z,348
2023-03-29T16:47:27.320Z,398
2023-03-29T16:48:50.733Z,439
2023-03-29T16:50:14.129Z,440
2023-03-29T16:51:37.533Z,402
2023-03-29T16:53:00.958Z,349
2023-03-29T16:54:24.347Z,309
2023-03-29T16:55:47.772Z,284
2023-03-29T16:57:10.181Z,260
2023-03-29T16:58:33.598Z,236
2023-03-29T16:59:57.004Z,226
2023-03-29T17:01:20.416Z,209
2023-03-29T17:02:43.830Z,199
2023-03-29T17:04:07.229Z,187
2023-03-29T17:05:30.640Z,3072
2023-03-29T17:06:54.057Z,181
2023-03-29T17:08:17.468Z,3072
2023-03-29T17:09:40.881Z,171
2023-03-29T17:11:04.287Z,155
2023-03-29T17:12:27.690Z,154
2023-03-29T17:13:51.098Z,137
2023-03-29T17:15:13.514Z,132
2023-03-29T17:16:36.940Z,121
2023-03-29T17:18:00.345Z,111
2023-03-29T17:19:23.742Z,99
2023-03-29T17:20:47.157Z,93
2023-03-29T17:22:10.572Z,90
2023-03-29T17:23:33.001Z,76
2023-03-29T17:24:56.397Z,71
2023-03-29T17:26:19.812Z,68
2023-03-29T17:27:43.209Z,62
2023-03-29T17:29:06.625Z,61
2023-03-29T17:30:30.038Z,59
2023-03-29T17:31:53.431Z,56
2023-03-29T17:33:16.843Z,51
2023-03-29T17:34:40.266Z,47
2023-03-29T17:36:03.659Z,43
2023-03-29T17:37:27.070Z,39
2023-03-29T17:38:50.480Z,35
2023-03-29T17:40:13.890Z,31
2023-03-29T17:41:36.311Z,30
2023-03-29T17:42:59.712Z,26
2023-03-29T17:44:23.127Z,21
2023-03-29T17:45:46.532Z,16
2023-03-29T17:47:09.931Z,16
2023-03-29T17:48:33.339Z,10
2023-03-29T17:49:56.766Z,11
2023-03-29T17:51:20.161Z,10
2023-03-29T17:52:43.576Z,6
2023-03-29T17:54:06.971Z,6
2023-03-29T17:55:30.392Z,5
2023-03-29T17:56:53.794Z,3
2023-03-29T17:58:17.197Z,2
2023-03-29T17:59:39.615Z,2
2023-03-29T18:01:03.034Z,1
2023-03-29T18:02:26.439Z,1
2023-03-29T18:03:49.901Z,0
2023-03-29T18:05:13.336Z,0
2023-03-29T18:06:36.791Z,0
2023-03-29T18:08:00.234Z,0
2023-03-29T18:09:23.692Z,0
2023-03-29T18:10:47.146Z,0
2023-03-29T18:12:10.595Z,0
2023-03-29T18:13:34.037Z,0
2023-03-29T18:14:57.490Z,0
2023-03-29T18:16:20.945Z,0
2023-03-29T18:17:43.399Z,0
2023-03-29T18:19:06.851Z,0
2023-03-29T18:20:30.307Z,0
2023-03-29T18:21:53.757Z,0
2023-03-29T18:23:17.202Z,0
2023-03-29T18:24:40.655Z,0
2023-03-29T18:26:04.092Z,0
2023-03-29T18:27:27.551Z,0
2023-03-29T18:28:51.000Z,0
2023-03-29T18:30:14.450Z,0
2023-03-29T18:31:37.888Z,0
2023-03-29T18:33:01.358Z,0
2023-03-29T18:34:24.797Z,0
2023-03-29T18:35:47.256Z,0
2023-03-29T18:37:10.704Z,0
2023-03-29T18:38:34.162Z,0
2023-03-29T18:39:57.617Z,0
2023-03-29T18:41:21.053Z,0
2023-03-29T18:42:44.516Z,0
2023-03-29T18:44:07.951Z,0
2023-03-29T18:45:31.413Z,0
2023-03-29T18:46:54.849Z,0
2023-03-29T18:48:18.306Z,0
2023-03-29T18:49:41.761Z,0
2023-03-29T18:51:05.209Z,0
2023-03-29T18:52:28.652Z,0
2023-03-29T18:53:51.112Z,0
2023-03-29T18:55:14.576Z,0
2023-03-29T18:56:38.006Z,0
2023-03-29T18:58:01.474Z,0
2023-03-29T18:59:24.921Z,0
2023-03-29T19:00:48.364Z,0
2023-03-29T19:02:11.810Z,0
2023-03-29T19:03:35.259Z,0
2023-03-29T19:04:58.698Z,0
2023-03-29T19:06:22.158Z,0
2023-03-29T19:07:45.610Z,0
2023-03-29T19:09:09.066Z,0
2023-03-29T19:10:32.521Z,0
2023-03-29T19:11:54.978Z,0
2023-03-29T19:13:18.424Z,0
2023-03-29T19:14:41.868Z,0
2023-03-29T19:16:05.322Z,0
2023-03-29T19:17:28.777Z,0
2023-03-29T19:18:52.222Z,0
2023-03-29T19:20:15.680Z,0
2023-03-29T19:21:39.125Z,0
2023-03-29T19:23:02.578Z,0
2023-03-29T19:24:26.023Z,0
2023-03-29T19:25:49.470Z,0
2023-03-29T19:27:12.917Z,0
2023-03-29T19:28:36.373Z,0
2023-03-29T19:29:58.827Z,0
2023-03-29T19:31:22.286Z,0
2023-03-29T19:32:45.734Z,0
2023-03-29T19:34:09.172Z,0
2023-03-29T19:35:32.622Z,0
2023-03-29T19:36:56.068Z,0
2023-03-29T19:38:19.534Z,0
2023-03-29T19:39:42.974Z,0
2023-03-29T19:41:06.433Z,0
2023-03-29T19:42:29.880Z,0
2023-03-29T19:43:53.333Z,0
2023-03-29T19:45:16.770Z,0
2023-03-29T19:46:40.229Z,0
2023-03-29T19:48:02.686Z,0
2023-03-29T19:49:26.145Z,0
2023-03-29T19:50:49.582Z,0
2023-03-29T19:52:13.027Z,0
2023-03-29T19:53:36.482Z,0
2023-03-29T19:54:59.936Z,0
2023-03-29T19:56:23.375Z,0
2023-03-29T19:57:46.824Z,0
2023-03-29T19:59:10.271Z,0
2023-03-29T20:00:33.718Z,0
2023-03-29T20:01:57.167Z,0
2023-03-29T20:03:20.615Z,0
2023-03-29T20:04:44.065Z,0
2023-03-29T20:06:06.545Z,0
2023-03-29T20:07:29.988Z,0
2023-03-29T20:08:53.429Z,0
2023-03-29T20:10:16.880Z,0
2023-03-29T20:11:40.332Z,0
2023-03-29T20:13:03.782Z,0
2023-03-29T20:14:27.242Z,0
2023-03-29T20:15:50.687Z,0
2023-03-29T20:17:14.130Z,0
2023-03-29T20:18:37.584Z,0
2023-03-29T20:20:01.032Z,0
2023-03-29T20:21:24.467Z,0
2023-03-29T20:22:47.929Z,0
2023-03-29T20:24:10.389Z,0
2023-03-29T20:25:33.846Z,0
2023-03-29T20:40:57.137Z,0
2023-03-29T20:56:20.445Z,0
2023-03-29T21:11:43.742Z,0
2023-03-29T21:27:07.039Z,0
2023-03-29T21:42:30.342Z,0
2023-03-29T21:57:53.641Z,0
2023-03-29T22:13:16.948Z,0
2023-03-29T22:28:40.246Z,0
2023-03-29T22:44:03.542Z,0
2023-03-29T22:59:26.844Z,0
2023-03-29T23:14:50.144Z,0
2023-03-29T23:30:12.449Z,0
2023-03-29T23:45:35.768Z,0
